createdAt,value
2022-08-28T00:01:28.994Z,98911.34
2022-08-28T00:03:03.316Z,98912.66
2022-08-28T00:04:39.265Z,98913.63
2022-08-28T00:06:12.726Z,98918.03
2022-08-28T00:07:47.984Z,98911.69
2022-08-28T00:09:21.854Z,98907.03
2022-08-28T00:10:55.453Z,98907.69
2022-08-28T00:12:28.721Z,98902.44
2022-08-28T00:14:01.974Z,98913.38
2022-08-28T00:15:37.032Z,98906.91
2022-08-28T00:17:11.964Z,98918.03
2022-08-28T00:18:45.572Z,98913.25
2022-08-28T00:20:21.082Z,98912.09
2022-08-28T00:21:55.162Z,98924.25
2022-08-28T00:23:36.958Z,98915.72
2022-08-28T00:25:20.200Z,98920.63
2022-08-28T00:27:11.179Z,98922.31
2022-08-28T00:28:43.543Z,98918.41
2022-08-28T00:30:17.178Z,98910.13
2022-08-28T00:31:51.036Z,98916.47
2022-08-28T00:33:28.637Z,98913.53
2022-08-28T00:35:03.197Z,98911.81
2022-08-28T00:36:37.424Z,98919.16
2022-08-28T00:38:12.034Z,98914.84
2022-08-28T00:39:44.989Z,98922.78
2022-08-28T00:41:19.024Z,98919.38
2022-08-28T00:42:57.238Z,98923.75
2022-08-28T00:44:30.525Z,98917.66
2022-08-28T00:46:05.786Z,98916.19
2022-08-28T00:47:39.337Z,98918.59
2022-08-28T00:49:16.090Z,98924.31
2022-08-28T00:51:06.762Z,98921.00
2022-08-28T00:52:41.719Z,98923.47
2022-08-28T00:54:14.027Z,98925.91
2022-08-28T00:55:47.258Z,98922.25
2022-08-28T00:57:22.322Z,98922.03
2022-08-28T00:59:06.723Z,98922.03
2022-08-28T01:00:41.191Z,98926.84
2022-08-28T01:02:13.843Z,98913.94
2022-08-28T01:03:47.710Z,98931.03
2022-08-28T01:05:24.008Z,98931.03
2022-08-28T01:07:02.195Z,98917.13
2022-08-28T01:08:36.763Z,98923.22
2022-08-28T01:10:15.380Z,98931.53
2022-08-28T01:11:51.199Z,98932.53
2022-08-28T01:13:26.937Z,98925.44
2022-08-28T01:15:03.576Z,98928.84
2022-08-28T01:16:38.051Z,98920.06
2022-08-28T01:18:15.791Z,98921.69
2022-08-28T01:19:57.162Z,98921.78
2022-08-28T01:21:41.399Z,98924.19
2022-08-28T01:23:22.014Z,98933.59
2022-08-28T01:25:00.803Z,98931.28
2022-08-28T01:26:34.159Z,98929.53
2022-08-28T01:28:10.814Z,98929.81
2022-08-28T01:29:47.817Z,98925.00
2022-08-28T01:31:22.811Z,98929.00
2022-08-28T01:32:57.907Z,98927.53
2022-08-28T01:34:31.636Z,98928.28
2022-08-28T01:36:05.047Z,98933.38
2022-08-28T01:37:38.508Z,98917.03
2022-08-28T01:39:15.607Z,98931.78
2022-08-28T01:40:57.509Z,98921.19
2022-08-28T01:42:30.674Z,98921.66
2022-08-28T01:44:04.108Z,98927.25
2022-08-28T01:45:38.104Z,98923.09
2022-08-28T01:47:11.827Z,98929.16
2022-08-28T01:48:45.671Z,98935.28
2022-08-28T01:50:21.754Z,98923.59
2022-08-28T01:51:54.970Z,98923.09
2022-08-28T01:53:32.948Z,98928.88
2022-08-28T01:55:07.835Z,98923.16
2022-08-28T01:56:44.447Z,98928.88
2022-08-28T01:58:18.542Z,98914.47
2022-08-28T01:59:51.423Z,98923.75
2022-08-28T02:01:25.842Z,98925.72
2022-08-28T02:03:00.906Z,98928.03
2022-08-28T02:04:34.320Z,98933.84
2022-08-28T02:06:08.384Z,98934.59
2022-08-28T02:07:41.928Z,98927.19
2022-08-28T02:09:15.165Z,98927.91
2022-08-28T02:10:49.878Z,98926.22
2022-08-28T02:12:25.231Z,98931.47
2022-08-28T02:13:57.414Z,98925.22
2022-08-28T02:15:33.561Z,98925.22
2022-08-28T02:17:07.220Z,98931.47
2022-08-28T02:18:39.678Z,98919.66
2022-08-28T02:20:12.987Z,98930.38
2022-08-28T02:21:46.214Z,98931.34
2022-08-28T02:23:20.139Z,98930.59
2022-08-28T02:24:53.536Z,98927.41
2022-08-28T02:26:26.936Z,98931.63
2022-08-28T02:28:01.592Z,98943.69
2022-08-28T02:29:35.179Z,98939.53
2022-08-28T02:31:08.471Z,98935.78
2022-08-28T02:32:41.718Z,98941.81
2022-08-28T02:34:17.625Z,98941.44
2022-08-28T02:35:51.299Z,98934.16
2022-08-28T02:37:24.835Z,98940.19
2022-08-28T02:38:58.548Z,98938.16
2022-08-28T02:40:31.832Z,98945.97
2022-08-28T02:42:05.802Z,98942.09
2022-08-28T02:43:41.403Z,98942.66
2022-08-28T02:45:15.733Z,98950.47
2022-08-28T02:46:49.246Z,98939.97
2022-08-28T02:48:22.600Z,98950.00
2022-08-28T02:49:56.487Z,98939.06
2022-08-28T02:51:33.550Z,98943.13
2022-08-28T02:53:06.788Z,98936.91
2022-08-28T02:54:40.512Z,98943.34
2022-08-28T02:56:14.088Z,98945.63
2022-08-28T02:57:47.351Z,98950.97
2022-08-28T02:59:22.391Z,98949.81
2022-08-28T03:00:57.247Z,98950.88
2022-08-28T03:02:32.977Z,98949.41
2022-08-28T03:04:06.561Z,98954.75
2022-08-28T03:05:38.724Z,98956.25
2022-08-28T03:07:13.936Z,98966.72
2022-08-28T03:08:47.313Z,98962.22
2022-08-28T03:10:21.882Z,98960.81
2022-08-28T03:11:55.183Z,98958.59
2022-08-28T03:13:30.243Z,98963.06
2022-08-28T03:15:07.627Z,98954.53
2022-08-28T03:16:40.918Z,98965.25
2022-08-28T03:18:15.376Z,98959.22
2022-08-28T03:19:50.502Z,98961.59
2022-08-28T03:21:23.758Z,98961.59
2022-08-28T03:23:14.151Z,98957.44
2022-08-28T03:24:47.690Z,98963.75
2022-08-28T03:26:24.397Z,98963.97
2022-08-28T03:27:56.621Z,98961.59
2022-08-28T03:29:29.796Z,98963.53
2022-08-28T03:31:06.119Z,98951.78
2022-08-28T03:32:38.776Z,98964.19
2022-08-28T03:34:11.928Z,98964.19
2022-08-28T03:35:44.140Z,98968.25
2022-08-28T03:37:17.338Z,98959.59
2022-08-28T03:38:51.747Z,98971.22
2022-08-28T03:40:25.040Z,98965.25
2022-08-28T03:41:58.292Z,98966.09
2022-08-28T03:43:31.561Z,98965.06
2022-08-28T03:45:05.932Z,98969.22
2022-08-28T03:46:40.623Z,98965.06
2022-08-28T03:48:13.969Z,98972.31
2022-08-28T03:49:47.284Z,98963.97
2022-08-28T03:51:29.216Z,98967.53
2022-08-28T03:53:03.090Z,98972.00
2022-08-28T03:54:36.325Z,98970.59
2022-08-28T03:56:11.509Z,98979.38
2022-08-28T03:57:46.108Z,98977.44
2022-08-28T03:59:20.778Z,98986.22
2022-08-28T04:00:59.957Z,98986.66
2022-08-28T04:02:34.688Z,98983.41
2022-08-28T04:04:08.320Z,98981.50
2022-08-28T04:05:41.941Z,98988.13
2022-08-28T04:07:15.496Z,98990.59
2022-08-28T04:08:49.024Z,98980.41
2022-08-28T04:10:22.932Z,98982.13
2022-08-28T04:11:56.197Z,98978.47
2022-08-28T04:13:30.322Z,98985.56
2022-08-28T04:15:03.356Z,98979.44
2022-08-28T04:16:37.394Z,98976.97
2022-08-28T04:18:12.864Z,98976.97
2022-08-28T04:19:46.205Z,98977.22
2022-08-28T04:21:23.614Z,98977.22
2022-08-28T04:22:57.104Z,98978.72
2022-08-28T04:24:33.904Z,98983.00
2022-08-28T04:26:08.352Z,98991.53
2022-08-28T04:27:41.686Z,98987.78
2022-08-28T04:29:16.334Z,98987.16
2022-08-28T04:30:50.481Z,98986.66
2022-08-28T04:32:23.761Z,98996.69
2022-08-28T04:33:59.913Z,98997.97
2022-08-28T04:35:33.361Z,98974.63
2022-08-28T04:37:07.005Z,98979.41
2022-08-28T04:38:43.945Z,98982.50
2022-08-28T04:40:17.474Z,98991.50
2022-08-28T04:41:51.509Z,98997.03
2022-08-28T04:43:25.018Z,98994.22
2022-08-28T04:44:59.643Z,99001.22
2022-08-28T04:46:33.596Z,98993.25
2022-08-28T04:48:10.593Z,98988.69
2022-08-28T04:49:48.399Z,98992.88
2022-08-28T04:51:21.711Z,98991.63
2022-08-28T04:52:54.907Z,99001.34
2022-08-28T04:54:28.705Z,98995.88
2022-08-28T04:56:05.216Z,98994.31
2022-08-28T04:57:38.397Z,98997.50
2022-08-28T04:59:12.919Z,98993.16
2022-08-28T05:00:47.918Z,98990.38
2022-08-28T05:02:21.269Z,98991.69
2022-08-28T05:03:57.709Z,99001.06
2022-08-28T05:05:32.455Z,99000.09
2022-08-28T05:07:06.666Z,98993.53
2022-08-28T05:08:39.821Z,98995.03
2022-08-28T05:10:13.202Z,98975.09
2022-08-28T05:11:47.515Z,98984.78
2022-08-28T05:13:21.485Z,98996.16
2022-08-28T05:14:54.769Z,98981.41
2022-08-28T05:16:28.182Z,98988.97
2022-08-28T05:18:01.606Z,98983.69
2022-08-28T05:19:35.350Z,98990.22
2022-08-28T05:21:15.214Z,98983.66
2022-08-28T05:22:48.457Z,98985.63
2022-08-28T05:24:22.021Z,98984.66
2022-08-28T05:25:55.617Z,98975.78
2022-08-28T05:27:29.025Z,98978.00
2022-08-28T05:29:02.787Z,98968.09
2022-08-28T05:30:37.414Z,98975.22
2022-08-28T05:32:10.992Z,98973.22
2022-08-28T05:33:43.771Z,98974.13
2022-08-28T05:35:17.322Z,98972.94
2022-08-28T05:36:53.230Z,98975.81
2022-08-28T05:38:26.751Z,98975.63
2022-08-28T05:40:00.283Z,98972.50
2022-08-28T05:41:34.879Z,98973.31
2022-08-28T05:43:07.998Z,98974.84
2022-08-28T05:44:41.492Z,98973.22
2022-08-28T05:46:16.287Z,98971.34
2022-08-28T05:47:51.028Z,98968.97
2022-08-28T05:49:24.691Z,98970.81
2022-08-28T05:50:57.673Z,98961.53
2022-08-28T05:52:32.197Z,98974.22
2022-08-28T05:54:05.797Z,98971.22
2022-08-28T05:55:41.270Z,98973.75
2022-08-28T05:57:14.841Z,98970.88
2022-08-28T05:58:48.161Z,98965.31
2022-08-28T06:00:21.690Z,98967.94
2022-08-28T06:01:55.139Z,98962.84
2022-08-28T06:03:27.606Z,98972.41
2022-08-28T06:05:00.979Z,98976.84
2022-08-28T06:06:35.655Z,98961.84
2022-08-28T06:08:10.311Z,98965.50
2022-08-28T06:09:43.953Z,98962.88
2022-08-28T06:11:16.133Z,98972.56
2022-08-28T06:12:51.907Z,98966.53
2022-08-28T06:14:26.173Z,98971.00
2022-08-28T06:15:59.773Z,98965.56
2022-08-28T06:17:33.001Z,98972.19
2022-08-28T06:19:06.999Z,98968.59
2022-08-28T06:20:42.260Z,98964.19
2022-08-28T06:22:15.684Z,98967.59
2022-08-28T06:23:49.321Z,98970.91
2022-08-28T06:25:22.829Z,98963.47
2022-08-28T06:26:58.595Z,98958.03
2022-08-28T06:28:33.202Z,98956.22
2022-08-28T06:30:08.051Z,98955.91
2022-08-28T06:31:41.865Z,98966.34
2022-08-28T06:33:16.547Z,98964.66
2022-08-28T06:34:50.013Z,98968.28
2022-08-28T06:36:23.325Z,98964.22
2022-08-28T06:37:55.831Z,98973.06
2022-08-28T06:39:30.540Z,98968.06
2022-08-28T06:41:03.915Z,98960.69
2022-08-28T06:42:37.130Z,98965.69
2022-08-28T06:44:12.511Z,98963.25
2022-08-28T06:45:47.830Z,98948.91
2022-08-28T06:47:21.327Z,98961.03
2022-08-28T06:48:54.599Z,98957.41
2022-08-28T06:50:28.738Z,98960.06
2022-08-28T06:52:02.375Z,98948.19
2022-08-28T06:53:35.848Z,98952.59
2022-08-28T06:55:11.675Z,98951.00
2022-08-28T06:56:46.422Z,98948.69
2022-08-28T06:58:19.604Z,98948.84
2022-08-28T06:59:53.185Z,98949.13
2022-08-28T07:01:29.546Z,98952.78
2022-08-28T07:03:04.941Z,98945.13
2022-08-28T07:04:38.102Z,98953.53
2022-08-28T07:06:11.889Z,98950.72
2022-08-28T07:07:45.160Z,98949.75
2022-08-28T07:09:18.408Z,98934.09
2022-08-28T07:10:54.091Z,98944.41
2022-08-28T07:12:27.439Z,98946.59
2022-08-28T07:14:02.389Z,98932.78
2022-08-28T07:15:36.018Z,98943.06
2022-08-28T07:17:15.037Z,98941.81
2022-08-28T07:18:48.834Z,98944.63
2022-08-28T07:20:22.782Z,98946.31
2022-08-28T07:21:57.107Z,98940.56
2022-08-28T07:23:31.544Z,98945.69
2022-08-28T07:25:05.766Z,98942.94
2022-08-28T07:26:42.044Z,98944.16
2022-08-28T07:28:16.014Z,98941.13
2022-08-28T07:29:50.287Z,98935.44
2022-08-28T07:31:26.829Z,98932.16
2022-08-28T07:33:00.029Z,98934.75
2022-08-28T07:34:33.935Z,98939.25
2022-08-28T07:36:07.325Z,98932.91
2022-08-28T07:37:41.049Z,98935.88
2022-08-28T07:39:16.030Z,98935.66
2022-08-28T07:40:49.396Z,98929.31
2022-08-28T07:42:41.588Z,98933.78
2022-08-28T07:44:34.230Z,98927.81
2022-08-28T07:46:11.398Z,98935.03
2022-08-28T07:47:45.090Z,98931.44
2022-08-28T07:49:17.351Z,98933.34
2022-08-28T07:50:50.534Z,98929.47
2022-08-28T07:52:24.011Z,98932.00
2022-08-28T07:53:58.381Z,98929.22
2022-08-28T07:55:31.861Z,98924.38
2022-08-28T07:57:05.678Z,98924.44
2022-08-28T07:58:40.507Z,98917.69
2022-08-28T08:00:15.133Z,98929.91
2022-08-28T08:01:50.799Z,98922.00
2022-08-28T08:03:24.986Z,98922.56
2022-08-28T08:04:58.690Z,98918.25
2022-08-28T08:06:34.372Z,98919.56
2022-08-28T08:08:07.926Z,98925.44
2022-08-28T08:09:43.333Z,98912.75
2022-08-28T08:11:20.905Z,98909.34
2022-08-28T08:12:57.314Z,98915.66
2022-08-28T08:14:31.905Z,98919.16
2022-08-28T08:16:07.801Z,98915.38
2022-08-28T08:17:41.564Z,98911.88
2022-08-28T08:19:17.773Z,98921.13
2022-08-28T08:20:51.898Z,98914.69
2022-08-28T08:22:25.359Z,98909.06
2022-08-28T08:23:59.456Z,98915.66
2022-08-28T08:25:33.610Z,98907.88
2022-08-28T08:27:07.781Z,98915.94
2022-08-28T08:28:42.501Z,98902.91
2022-08-28T08:30:17.608Z,98900.22
2022-08-28T08:31:58.276Z,98908.00
2022-08-28T08:33:31.507Z,98907.31
2022-08-28T08:35:04.861Z,98903.13
2022-08-28T08:36:39.889Z,98910.38
2022-08-28T08:38:13.504Z,98904.84
2022-08-28T08:39:46.891Z,98895.75
2022-08-28T08:41:25.246Z,98902.84
2022-08-28T08:42:58.908Z,98905.72
2022-08-28T08:44:35.916Z,98897.56
2022-08-28T08:46:10.807Z,98895.53
2022-08-28T08:47:50.029Z,98896.50
2022-08-28T08:49:27.268Z,98891.44
2022-08-28T08:51:05.385Z,98896.97
2022-08-28T08:52:48.611Z,98896.22
2022-08-28T08:54:23.547Z,98895.41
2022-08-28T08:55:58.313Z,98888.69
2022-08-28T08:57:32.364Z,98884.00
2022-08-28T08:59:11.922Z,98893.88
2022-08-28T09:01:01.286Z,98893.50
2022-08-28T09:02:44.196Z,98891.59
2022-08-28T09:04:34.389Z,98873.91
2022-08-28T09:06:16.842Z,98883.53
2022-08-28T09:07:57.011Z,98883.06
2022-08-28T09:09:33.429Z,98876.06
2022-08-28T09:11:19.510Z,98886.88
2022-08-28T09:13:02.443Z,98881.44
2022-08-28T09:14:42.958Z,98880.41
2022-08-28T09:16:22.553Z,98876.03
2022-08-28T09:18:04.894Z,98878.44
2022-08-28T09:19:38.654Z,98880.25
2022-08-28T09:21:12.166Z,98878.41
2022-08-28T09:22:46.899Z,98872.44
2022-08-28T09:24:23.727Z,98878.44
2022-08-28T09:26:01.731Z,98870.94
2022-08-28T09:27:35.944Z,98877.88
2022-08-28T09:29:17.826Z,98874.84
2022-08-28T09:30:58.300Z,98868.28
2022-08-28T09:32:33.910Z,98875.53
2022-08-28T09:34:38.580Z,98875.19
2022-08-28T09:36:30.558Z,98861.97
2022-08-28T09:38:21.367Z,98871.78
2022-08-28T09:40:16.297Z,98869.13
2022-08-28T09:42:16.258Z,98870.25
2022-08-28T09:43:48.579Z,98867.19
2022-08-28T09:45:25.082Z,98862.06
2022-08-28T09:46:57.891Z,98856.09
2022-08-28T09:48:36.089Z,98860.19
2022-08-28T09:50:42.419Z,98855.66
2022-08-28T09:52:25.346Z,98856.00
2022-08-28T09:54:03.800Z,98853.72
2022-08-28T09:55:45.952Z,98852.13
2022-08-28T09:57:19.293Z,98852.31
2022-08-28T09:58:54.886Z,98846.81
2022-08-28T10:00:30.328Z,98853.63
2022-08-28T10:02:14.781Z,98848.00
2022-08-28T10:03:55.194Z,98858.13
2022-08-28T10:05:39.423Z,98853.53
2022-08-28T10:07:20.178Z,98841.00
2022-08-28T10:09:07.286Z,98844.09
2022-08-28T10:10:46.935Z,98848.06
2022-08-28T10:12:35.194Z,98838.16
2022-08-28T10:14:20.815Z,98833.19
2022-08-28T10:16:10.096Z,98832.81
2022-08-28T10:18:01.286Z,98835.59
2022-08-28T10:19:44.425Z,98827.00
2022-08-28T10:21:25.431Z,98826.91
2022-08-28T10:23:07.536Z,98832.53
2022-08-28T10:25:00.090Z,98831.72
2022-08-28T10:26:42.623Z,98827.13
2022-08-28T10:28:33.409Z,98829.28
2022-08-28T10:30:13.360Z,98816.09
2022-08-28T10:31:54.398Z,98825.75
2022-08-28T10:33:40.479Z,98822.72
2022-08-28T10:35:19.515Z,98816.41
2022-08-28T10:37:03.585Z,98815.81
2022-08-28T10:38:41.204Z,98814.59
2022-08-28T10:40:17.139Z,98825.13
2022-08-28T10:41:56.079Z,98807.78
2022-08-28T10:43:35.336Z,98814.88
2022-08-28T10:45:14.012Z,98811.06
2022-08-28T10:46:51.958Z,98811.06
2022-08-28T10:48:30.114Z,98808.31
2022-08-28T10:50:09.923Z,98809.66
2022-08-28T10:51:46.136Z,98801.19
2022-08-28T10:53:24.426Z,98810.88
2022-08-28T10:55:05.587Z,98805.06
2022-08-28T10:56:46.196Z,98812.50
2022-08-28T10:58:31.681Z,98813.19
2022-08-28T11:00:10.846Z,98812.75
2022-08-28T11:01:46.261Z,98809.31
2022-08-28T11:03:34.279Z,98812.28
2022-08-28T11:05:09.046Z,98811.34
2022-08-28T11:06:48.914Z,98805.06
2022-08-28T11:08:29.026Z,98807.59
2022-08-28T11:10:20.482Z,98800.31
2022-08-28T11:12:01.574Z,98805.25
2022-08-28T11:13:57.828Z,98795.13
2022-08-28T11:15:58.170Z,98799.06
2022-08-28T11:17:42.234Z,98796.56
2022-08-28T11:19:52.516Z,98793.13
2022-08-28T11:21:28.904Z,98791.00
2022-08-28T11:23:10.520Z,98790.56
2022-08-28T11:24:55.145Z,98792.53
2022-08-28T11:26:40.723Z,98784.88
2022-08-28T11:28:18.874Z,98792.81
2022-08-28T11:30:15.195Z,98798.34
2022-08-28T11:31:48.943Z,98786.09
2022-08-28T11:33:42.673Z,98785.44
2022-08-28T11:35:37.904Z,98783.78
2022-08-28T11:37:48.846Z,98777.50
2022-08-28T11:39:23.039Z,98781.81
2022-08-28T11:41:01.734Z,98780.91
2022-08-28T11:42:39.414Z,98779.06
2022-08-28T11:44:29.184Z,98773.41
2022-08-28T11:46:28.393Z,98779.53
2022-08-28T11:48:01.887Z,98778.75
2022-08-28T11:49:42.290Z,98776.41
2022-08-28T11:51:37.534Z,98774.38
2022-08-28T11:53:39.558Z,98770.47
2022-08-28T11:55:26.515Z,98767.13
2022-08-28T11:57:09.399Z,98758.84
2022-08-28T11:58:52.587Z,98767.25
2022-08-28T12:00:34.287Z,98763.91
2022-08-28T12:02:45.107Z,98758.53
2022-08-28T12:04:21.513Z,98764.22
2022-08-28T12:05:57.524Z,98762.59
2022-08-28T12:07:36.959Z,98770.72
2022-08-28T12:09:13.831Z,98767.59
2022-08-28T12:10:58.164Z,98764.78
2022-08-28T12:12:53.742Z,98763.56
2022-08-28T12:15:04.011Z,98754.25
2022-08-28T12:17:18.229Z,98757.63
2022-08-28T12:19:01.299Z,98768.81
2022-08-28T12:21:00.793Z,98761.66
2022-08-28T12:22:46.495Z,98765.72
2022-08-28T12:24:23.413Z,98752.28
2022-08-28T12:26:00.739Z,98754.31
2022-08-28T12:27:39.900Z,98759.81
2022-08-28T12:29:28.335Z,98760.03
2022-08-28T12:31:48.114Z,98762.75
2022-08-28T12:33:32.153Z,98767.75
2022-08-28T12:35:12.654Z,98757.63
2022-08-28T12:36:50.101Z,98758.69
2022-08-28T12:38:26.038Z,98756.28
2022-08-28T12:40:04.024Z,98757.28
2022-08-28T12:41:37.514Z,98756.56
2022-08-28T12:43:15.600Z,98753.59
2022-08-28T12:44:48.838Z,98760.84
2022-08-28T12:46:27.187Z,98747.72
2022-08-28T12:48:05.678Z,98745.19
2022-08-28T12:49:40.355Z,98742.19
2022-08-28T12:51:16.199Z,98743.88
2022-08-28T12:52:51.315Z,98742.97
2022-08-28T12:54:24.599Z,98740.44
2022-08-28T12:55:57.831Z,98741.72
2022-08-28T12:57:31.266Z,98740.50
2022-08-28T12:59:27.197Z,98748.47
2022-08-28T13:01:04.015Z,98740.91
2022-08-28T13:02:37.464Z,98742.75
2022-08-28T13:04:27.762Z,98740.50
2022-08-28T13:06:06.508Z,98728.19
2022-08-28T13:07:42.118Z,98736.97
2022-08-28T13:09:19.954Z,98735.75
2022-08-28T13:10:53.496Z,98738.69
2022-08-28T13:12:37.807Z,98733.63
2022-08-28T13:14:38.690Z,98730.34
2022-08-28T13:16:14.161Z,98731.31
2022-08-28T13:17:50.623Z,98732.50
2022-08-28T13:19:28.072Z,98734.94
2022-08-28T13:21:32.754Z,98735.28
2022-08-28T13:23:08.116Z,98728.47
2022-08-28T13:24:45.710Z,98730.09
2022-08-28T13:26:25.604Z,98729.63
2022-08-28T13:28:03.039Z,98732.06
2022-08-28T13:29:37.903Z,98720.63
2022-08-28T13:31:23.257Z,98731.63
2022-08-28T13:32:59.116Z,98740.50
2022-08-28T13:34:33.481Z,98729.47
2022-08-28T13:36:24.883Z,98726.38
2022-08-28T13:38:00.071Z,98728.22
2022-08-28T13:39:35.770Z,98729.53
2022-08-28T13:41:12.340Z,98729.09
2022-08-28T13:42:46.156Z,98736.19
2022-08-28T13:44:34.257Z,98727.91
2022-08-28T13:46:07.877Z,98732.00
2022-08-28T13:47:41.334Z,98729.53
2022-08-28T13:49:14.621Z,98728.97
2022-08-28T13:50:54.582Z,98730.84
2022-08-28T13:52:29.129Z,98719.41
2022-08-28T13:54:04.544Z,98715.84
2022-08-28T13:55:39.365Z,98718.91
2022-08-28T13:57:13.678Z,98720.13
2022-08-28T13:58:57.270Z,98718.34
2022-08-28T14:00:33.160Z,98721.81
2022-08-28T14:02:27.490Z,98720.63
2022-08-28T14:03:59.805Z,98719.28
2022-08-28T14:05:33.058Z,98713.72
2022-08-28T14:07:08.002Z,98717.53
2022-08-28T14:08:44.630Z,98710.81
2022-08-28T14:10:18.265Z,98711.19
2022-08-28T14:11:51.677Z,98713.25
2022-08-28T14:13:27.764Z,98713.72
2022-08-28T14:15:01.480Z,98710.81
2022-08-28T14:16:39.598Z,98710.06
2022-08-28T14:18:13.037Z,98716.88
2022-08-28T14:19:46.197Z,98718.56
2022-08-28T14:21:19.943Z,98718.41
2022-08-28T14:22:53.218Z,98719.84
2022-08-28T14:24:28.135Z,98716.13
2022-08-28T14:26:01.370Z,98723.72
2022-08-28T14:27:34.792Z,98718.69
2022-08-28T14:29:10.838Z,98714.09
2022-08-28T14:30:44.903Z,98721.97
2022-08-28T14:32:18.551Z,98722.28
2022-08-28T14:33:52.170Z,98712.97
2022-08-28T14:35:26.172Z,98719.06
2022-08-28T14:37:00.045Z,98716.97
2022-08-28T14:38:33.259Z,98715.22
2022-08-28T14:40:10.174Z,98717.56
2022-08-28T14:41:44.319Z,98722.91
2022-08-28T14:43:17.477Z,98714.00
2022-08-28T14:44:50.706Z,98709.56
2022-08-28T14:46:28.320Z,98703.00
2022-08-28T14:48:01.727Z,98702.41
2022-08-28T14:49:34.975Z,98699.34
2022-08-28T14:51:08.226Z,98707.72
2022-08-28T14:52:41.929Z,98710.72
2022-08-28T14:54:18.990Z,98708.22
2022-08-28T14:55:53.558Z,98706.50
2022-08-28T14:57:26.802Z,98704.84
2022-08-28T14:59:01.847Z,98704.84
2022-08-28T15:00:39.867Z,98702.72
2022-08-28T15:02:14.095Z,98704.84
2022-08-28T15:03:47.424Z,98697.66
2022-08-28T15:05:21.368Z,98693.97
2022-08-28T15:06:58.483Z,98702.72
2022-08-28T15:08:32.224Z,98700.09
2022-08-28T15:10:06.101Z,98695.25
2022-08-28T15:11:43.071Z,98695.72
2022-08-28T15:13:16.408Z,98695.34
2022-08-28T15:14:55.332Z,98690.16
2022-08-28T15:16:33.649Z,98698.41
2022-08-28T15:18:07.557Z,98700.94
2022-08-28T15:19:40.896Z,98695.44
2022-08-28T15:21:18.130Z,98691.75
2022-08-28T15:22:51.532Z,98696.47
2022-08-28T15:24:27.408Z,98698.22
2022-08-28T15:26:01.016Z,98697.41
2022-08-28T15:27:35.826Z,98696.97
2022-08-28T15:29:10.853Z,98696.97
2022-08-28T15:30:45.314Z,98698.91
2022-08-28T15:32:18.697Z,98705.47
2022-08-28T15:33:52.145Z,98705.31
2022-08-28T15:35:25.597Z,98704.06
2022-08-28T15:36:59.787Z,98698.84
2022-08-28T15:38:52.864Z,98694.63
2022-08-28T15:40:46.328Z,98693.34
2022-08-28T15:42:19.944Z,98684.09
2022-08-28T15:43:56.189Z,98683.50
2022-08-28T15:45:29.467Z,98693.63
2022-08-28T15:47:04.977Z,98695.88
2022-08-28T15:48:38.703Z,98699.28
2022-08-28T15:50:12.011Z,98697.13
2022-08-28T15:51:45.298Z,98704.31
2022-08-28T15:53:19.444Z,98701.56
2022-08-28T15:54:53.140Z,98702.63
2022-08-28T15:56:26.928Z,98694.63
2022-08-28T15:58:00.138Z,98695.06
2022-08-28T15:59:48.297Z,98696.38
2022-08-28T16:01:23.750Z,98694.66
2022-08-28T16:03:00.006Z,98698.69
2022-08-28T16:04:33.201Z,98696.81
2022-08-28T16:06:12.087Z,98698.91
2022-08-28T16:07:46.843Z,98692.34
2022-08-28T16:09:20.077Z,98695.56
2022-08-28T16:10:53.893Z,98695.59
2022-08-28T16:12:27.205Z,98696.44
2022-08-28T16:14:01.224Z,98696.44
2022-08-28T16:15:36.230Z,98698.97
2022-08-28T16:17:10.634Z,98692.03
2022-08-28T16:18:44.158Z,98695.38
2022-08-28T16:20:17.833Z,98692.63
2022-08-28T16:21:51.173Z,98690.50
2022-08-28T16:23:24.547Z,98701.50
2022-08-28T16:24:57.967Z,98702.56
2022-08-28T16:26:32.203Z,98702.38
2022-08-28T16:28:06.493Z,98700.72
2022-08-28T16:29:39.956Z,98701.59
2022-08-28T16:31:19.839Z,98700.78
2022-08-28T16:32:54.689Z,98702.09
2022-08-28T16:34:31.338Z,98704.19
2022-08-28T16:36:08.424Z,98708.47
2022-08-28T16:37:41.937Z,98708.13
2022-08-28T16:39:15.520Z,98719.56
2022-08-28T16:40:49.035Z,98720.06
2022-08-28T16:42:22.288Z,98715.00
2022-08-28T16:43:56.431Z,98717.34
2022-08-28T16:45:30.507Z,98730.28
2022-08-28T16:47:05.379Z,98723.50
2022-08-28T16:48:38.842Z,98722.28
2022-08-28T16:50:14.567Z,98722.28
2022-08-28T16:51:48.808Z,98717.63
2022-08-28T16:53:27.006Z,98735.38
2022-08-28T16:55:00.861Z,98723.34
2022-08-28T16:56:34.470Z,98728.19
2022-08-28T16:58:08.314Z,98737.06
2022-08-28T16:59:41.563Z,98736.66
2022-08-28T17:01:15.291Z,98736.22
2022-08-28T17:02:50.097Z,98731.19
2022-08-28T17:04:24.078Z,98731.97
2022-08-28T17:05:58.113Z,98742.94
2022-08-28T17:07:30.751Z,98738.28
2022-08-28T17:09:04.293Z,98735.75
2022-08-28T17:10:38.028Z,98732.34
2022-08-28T17:12:11.603Z,98743.72
2022-08-28T17:13:46.134Z,98742.84
2022-08-28T17:15:19.651Z,98744.50
2022-08-28T17:16:54.160Z,98752.88
2022-08-28T17:18:28.880Z,98747.41
2022-08-28T17:20:01.304Z,98756.63
2022-08-28T17:21:53.412Z,98744.34
2022-08-28T17:23:27.017Z,98752.69
2022-08-28T17:25:01.590Z,98759.16
2022-08-28T17:26:35.433Z,98762.28
2022-08-28T17:28:08.652Z,98765.19
2022-08-28T17:29:42.052Z,98762.16
2022-08-28T17:31:15.318Z,98756.59
2022-08-28T17:32:51.831Z,98776.66
2022-08-28T17:34:30.386Z,98775.69
2022-08-28T17:36:04.884Z,98779.22
2022-08-28T17:37:41.880Z,98775.56
2022-08-28T17:39:17.886Z,98775.81
2022-08-28T17:40:51.198Z,98782.38
2022-08-28T17:42:24.933Z,98781.09
2022-08-28T17:43:58.395Z,98788.41
2022-08-28T17:45:32.417Z,98785.84
2022-08-28T17:47:06.143Z,98779.94
2022-08-28T17:48:40.953Z,98795.09
2022-08-28T17:50:23.249Z,98795.22
2022-08-28T17:51:56.583Z,98804.81
2022-08-28T17:53:30.410Z,98796.72
2022-08-28T17:55:04.256Z,98795.16
2022-08-28T17:56:38.072Z,98806.25
2022-08-28T17:58:11.865Z,98802.19
2022-08-28T17:59:45.062Z,98809.28
2022-08-28T18:01:20.400Z,98806.50
2022-08-28T18:02:54.558Z,98802.53
2022-08-28T18:04:27.859Z,98810.09
2022-08-28T18:06:02.983Z,98811.13
2022-08-28T18:07:36.766Z,98813.91
2022-08-28T18:09:10.913Z,98819.03
2022-08-28T18:10:44.178Z,98818.75
2022-08-28T18:12:17.599Z,98818.06
2022-08-28T18:13:51.482Z,98824.91
2022-08-28T18:15:24.665Z,98823.88
2022-08-28T18:16:58.257Z,98833.31
2022-08-28T18:18:36.376Z,98831.84
2022-08-28T18:20:12.677Z,98832.91
2022-08-28T18:21:47.874Z,98830.38
2022-08-28T18:23:21.372Z,98828.03
2022-08-28T18:24:54.862Z,98821.09
2022-08-28T18:26:28.255Z,98837.44
2022-08-28T18:28:02.411Z,98837.06
2022-08-28T18:29:36.968Z,98836.09
2022-08-28T18:31:10.998Z,98842.22
2022-08-28T18:32:45.129Z,98837.47
2022-08-28T18:34:18.735Z,98833.41
2022-08-28T18:35:52.978Z,98850.41
2022-08-28T18:37:27.912Z,98856.88
2022-08-28T18:39:01.960Z,98855.03
2022-08-28T18:40:36.059Z,98859.09
2022-08-28T18:42:09.896Z,98856.91
2022-08-28T18:43:43.525Z,98850.09
2022-08-28T18:45:17.300Z,98860.94
2022-08-28T18:46:52.134Z,98865.19
2022-08-28T18:48:25.733Z,98866.53
2022-08-28T18:49:59.419Z,98862.94
2022-08-28T18:51:33.646Z,98869.00
2022-08-28T18:53:08.448Z,98871.22
2022-08-28T18:54:41.888Z,98870.66
2022-08-28T18:56:17.365Z,98873.03
2022-08-28T18:57:50.858Z,98869.97